createdAt,value
2022-07-28T00:01:48.745Z,94.00
2022-07-28T00:04:18.686Z,95.10
2022-07-28T00:06:47.860Z,93.50
2022-07-28T00:09:16.221Z,94.10
2022-07-28T00:11:54.162Z,94.50
2022-07-28T00:14:23.649Z,94.60
2022-07-28T00:16:52.669Z,94.40
2022-07-28T00:19:22.428Z,94.40
2022-07-28T00:21:51.319Z,94.30
2022-07-28T00:24:19.826Z,94.10
2022-07-28T00:26:48.548Z,94.20
2022-07-28T00:29:17.122Z,94.30
2022-07-28T00:31:46.212Z,94.30
2022-07-28T00:34:15.262Z,94.30
2022-07-28T00:36:45.538Z,94.80
2022-07-28T00:39:14.024Z,94.70
2022-07-28T00:41:42.898Z,94.30
2022-07-28T00:44:12.545Z,96.20
2022-07-28T00:46:42.523Z,95.50
2022-07-28T00:49:11.386Z,95.00
2022-07-28T00:51:41.406Z,95.20
2022-07-28T00:54:11.930Z,96.00
2022-07-28T00:56:40.602Z,95.90
2022-07-28T00:59:11.934Z,95.90
2022-07-28T01:01:40.585Z,96.10
2022-07-28T01:04:09.490Z,96.30
2022-07-28T01:06:56.026Z,96.40
2022-07-28T01:09:41.894Z,96.80
2022-07-28T01:12:19.554Z,97.30
2022-07-28T01:14:51.197Z,97.20
2022-07-28T01:17:26.978Z,98.00
2022-07-28T01:20:08.633Z,98.10
2022-07-28T01:22:43.025Z,99.40
2022-07-28T01:25:22.805Z,99.40
2022-07-28T01:28:07.913Z,99.40
2022-07-28T01:30:42.565Z,99.70
2022-07-28T01:33:16.695Z,99.90
2022-07-28T01:35:48.613Z,99.90
2022-07-28T01:38:18.177Z,99.90
2022-07-28T01:40:48.474Z,99.90
2022-07-28T01:43:23.721Z,99.90
2022-07-28T01:45:56.820Z,99.90
2022-07-28T01:48:26.160Z,99.90
2022-07-28T01:50:57.616Z,99.90
2022-07-28T01:53:27.274Z,99.90
2022-07-28T01:55:57.286Z,99.90
2022-07-28T01:58:27.084Z,99.90
2022-07-28T02:00:59.196Z,99.90
2022-07-28T02:03:31.317Z,99.90
2022-07-28T02:06:03.692Z,99.90
2022-07-28T02:08:34.739Z,99.90
2022-07-28T02:11:20.983Z,99.90
2022-07-28T02:13:51.571Z,99.90
2022-07-28T02:16:26.213Z,99.90
2022-07-28T02:18:58.226Z,99.90
2022-07-28T02:21:28.623Z,99.90
2022-07-28T02:23:57.766Z,99.90
2022-07-28T02:26:30.169Z,99.90
2022-07-28T02:29:01.267Z,99.90
2022-07-28T02:31:36.054Z,99.90
2022-07-28T02:34:11.892Z,99.90
2022-07-28T02:36:48.462Z,99.90
2022-07-28T02:39:23.252Z,99.90
2022-07-28T02:42:00.081Z,99.90
2022-07-28T02:44:36.327Z,99.90
2022-07-28T02:47:10.950Z,99.90
2022-07-28T02:49:41.543Z,99.90
2022-07-28T02:52:12.696Z,99.90
2022-07-28T02:54:42.840Z,99.90
2022-07-28T02:57:13.703Z,99.90
2022-07-28T02:59:43.887Z,99.90
2022-07-28T03:02:14.497Z,99.90
2022-07-28T03:05:00.762Z,99.90
2022-07-28T03:07:33.593Z,99.90
2022-07-28T03:10:02.098Z,99.90
2022-07-28T03:12:32.421Z,99.90
2022-07-28T03:15:00.850Z,99.90
2022-07-28T03:17:30.870Z,99.90
2022-07-28T03:19:59.953Z,99.90
2022-07-28T03:22:28.389Z,99.90
2022-07-28T03:24:59.054Z,99.90
2022-07-28T03:27:31.972Z,99.90
2022-07-28T03:30:04.325Z,99.90
2022-07-28T03:32:38.136Z,99.90
2022-07-28T03:35:08.069Z,99.90
2022-07-28T03:37:42.565Z,99.90
2022-07-28T03:40:15.130Z,99.90
2022-07-28T03:42:47.618Z,99.90
2022-07-28T03:45:17.216Z,99.90
2022-07-28T03:47:53.037Z,99.90
2022-07-28T03:50:24.153Z,99.90
2022-07-28T03:52:53.118Z,99.90
2022-07-28T03:55:21.922Z,99.90
2022-07-28T03:57:50.542Z,99.90
2022-07-28T04:00:20.604Z,99.90
2022-07-28T04:02:49.482Z,99.90
2022-07-28T04:05:21.323Z,99.90
2022-07-28T04:07:49.752Z,99.90
2022-07-28T04:10:19.199Z,99.90
2022-07-28T04:12:49.559Z,99.90
2022-07-28T04:15:18.514Z,99.90
2022-07-28T04:17:48.608Z,99.90
2022-07-28T04:20:19.892Z,99.90
2022-07-28T04:22:49.007Z,99.90
2022-07-28T04:25:20.045Z,99.90
2022-07-28T04:27:48.618Z,99.90
2022-07-28T04:30:18.625Z,99.90
2022-07-28T04:32:49.095Z,99.90
2022-07-28T04:35:20.122Z,99.90
2022-07-28T04:37:49.537Z,99.90
2022-07-28T04:40:17.955Z,99.90
2022-07-28T04:42:46.914Z,99.90
2022-07-28T04:45:15.381Z,99.90
2022-07-28T04:47:44.401Z,99.90
2022-07-28T04:50:16.073Z,99.90
2022-07-28T04:52:49.338Z,99.90
2022-07-28T04:55:17.877Z,99.90
2022-07-28T04:57:46.473Z,99.90
2022-07-28T05:00:16.059Z,99.90
2022-07-28T05:02:48.429Z,99.90
2022-07-28T05:05:17.415Z,99.90
2022-07-28T05:07:46.278Z,99.90
2022-07-28T05:10:16.056Z,99.90
2022-07-28T05:12:45.581Z,99.90
2022-07-28T05:15:13.994Z,99.90
2022-07-28T05:17:42.602Z,99.90
2022-07-28T05:20:13.628Z,99.90
2022-07-28T05:22:43.769Z,99.90
2022-07-28T05:25:18.471Z,99.90
2022-07-28T05:27:48.176Z,99.90
2022-07-28T05:30:17.805Z,99.90
2022-07-28T05:32:47.091Z,99.90
2022-07-28T05:35:15.700Z,99.90
2022-07-28T05:37:44.657Z,99.90
2022-07-28T05:40:14.950Z,99.90
2022-07-28T05:42:47.589Z,99.90
2022-07-28T05:45:17.762Z,99.90
2022-07-28T05:47:48.502Z,99.90
2022-07-28T05:50:18.343Z,99.90
2022-07-28T05:52:47.581Z,99.90
2022-07-28T05:55:17.755Z,99.90
2022-07-28T05:57:47.906Z,99.90
2022-07-28T06:00:18.418Z,99.90
2022-07-28T06:02:49.291Z,99.90
2022-07-28T06:05:21.615Z,99.90
2022-07-28T06:07:51.766Z,99.90
2022-07-28T06:10:22.345Z,99.90
2022-07-28T06:12:53.333Z,99.90
2022-07-28T06:15:23.446Z,99.90
2022-07-28T06:17:53.312Z,99.90
2022-07-28T06:20:23.853Z,99.90
2022-07-28T06:22:54.388Z,99.90
2022-07-28T06:25:25.272Z,99.90
2022-07-28T06:27:56.705Z,99.90
2022-07-28T06:30:25.820Z,99.90
2022-07-28T06:32:54.600Z,99.90
2022-07-28T06:35:23.888Z,99.90
2022-07-28T06:37:53.834Z,99.90
2022-07-28T06:40:23.873Z,99.90
2022-07-28T06:42:52.555Z,99.90
2022-07-28T06:45:23.684Z,99.90
2022-07-28T06:47:53.656Z,99.90
2022-07-28T06:50:26.224Z,99.90
2022-07-28T06:52:56.791Z,99.90
2022-07-28T06:55:25.352Z,99.90
2022-07-28T06:57:54.647Z,99.90
2022-07-28T07:00:24.554Z,99.90
2022-07-28T07:03:15.794Z,99.90
2022-07-28T07:05:44.594Z,99.90
2022-07-28T07:08:14.732Z,99.90
2022-07-28T07:10:43.122Z,99.90
2022-07-28T07:13:11.898Z,99.90
2022-07-28T07:15:44.294Z,99.90
2022-07-28T07:18:12.776Z,99.90
2022-07-28T07:20:41.359Z,99.90
2022-07-28T07:23:09.737Z,99.90
2022-07-28T07:25:38.308Z,99.90
2022-07-28T07:28:06.817Z,99.90
2022-07-28T07:30:35.172Z,99.90
2022-07-28T07:33:07.055Z,99.90
2022-07-28T07:35:37.932Z,99.90
2022-07-28T07:38:07.001Z,99.90
2022-07-28T07:40:35.588Z,99.90
2022-07-28T07:43:04.622Z,99.90
2022-07-28T07:45:34.334Z,99.90
2022-07-28T07:48:04.560Z,99.90
2022-07-28T07:50:33.250Z,99.90
2022-07-28T07:53:01.612Z,99.90
2022-07-28T07:55:34.465Z,99.90
2022-07-28T07:58:06.835Z,99.90
2022-07-28T08:00:35.938Z,99.90
2022-07-28T08:03:11.009Z,99.90
2022-07-28T08:05:40.627Z,99.90
2022-07-28T08:08:09.517Z,99.90
2022-07-28T08:10:40.078Z,99.90
2022-07-28T08:13:08.667Z,99.90
2022-07-28T08:15:37.486Z,99.90
2022-07-28T08:18:07.514Z,99.90
2022-07-28T08:20:36.061Z,99.90
2022-07-28T08:23:06.350Z,99.90
2022-07-28T08:25:37.003Z,99.90
2022-07-28T08:28:06.238Z,99.90
2022-07-28T08:30:34.609Z,99.90
2022-07-28T08:33:03.453Z,99.90
2022-07-28T08:35:35.141Z,99.90
2022-07-28T08:38:07.576Z,99.90
2022-07-28T08:40:39.225Z,99.90
2022-07-28T08:43:16.589Z,99.90
2022-07-28T08:45:48.918Z,99.90
2022-07-28T08:48:19.322Z,99.90
2022-07-28T08:50:50.862Z,99.90
2022-07-28T08:53:21.603Z,99.90
2022-07-28T08:55:50.349Z,99.90
2022-07-28T08:58:19.029Z,99.90
2022-07-28T09:00:48.316Z,99.90
2022-07-28T09:03:18.856Z,99.90
2022-07-28T09:05:50.311Z,99.90
2022-07-28T09:08:19.490Z,99.90
2022-07-28T09:10:48.323Z,99.90
2022-07-28T09:13:17.909Z,99.90
2022-07-28T09:15:47.183Z,99.90
2022-07-28T09:18:16.155Z,99.90
2022-07-28T09:20:45.725Z,99.90
2022-07-28T09:23:42.613Z,99.90
2022-07-28T09:26:11.045Z,99.90
2022-07-28T09:28:51.769Z,99.90
2022-07-28T09:31:22.045Z,99.90
2022-07-28T09:34:00.415Z,99.90
2022-07-28T09:36:29.795Z,99.90
2022-07-28T09:38:59.914Z,99.90
2022-07-28T09:41:28.368Z,99.80
2022-07-28T09:43:56.852Z,99.00
2022-07-28T09:46:29.496Z,99.40
2022-07-28T09:49:00.213Z,98.50
2022-07-28T09:51:31.675Z,98.20
2022-07-28T09:54:10.925Z,98.10
2022-07-28T09:56:41.783Z,97.50
2022-07-28T09:59:10.771Z,96.70
2022-07-28T10:01:55.617Z,96.20
2022-07-28T10:04:34.586Z,95.90
2022-07-28T10:07:10.070Z,95.80
2022-07-28T10:09:40.957Z,95.60
2022-07-28T10:12:16.500Z,96.50
2022-07-28T10:14:46.270Z,94.70
2022-07-28T10:17:29.420Z,94.70
2022-07-28T10:19:59.197Z,94.90
2022-07-28T10:22:33.018Z,94.40
2022-07-28T10:25:09.699Z,94.10
2022-07-28T10:27:43.023Z,94.30
2022-07-28T10:30:13.338Z,94.00
2022-07-28T10:32:44.904Z,92.60
2022-07-28T10:35:14.775Z,91.90
2022-07-28T10:37:51.014Z,90.80
2022-07-28T10:40:27.192Z,91.00
2022-07-28T10:42:56.742Z,90.30
2022-07-28T10:45:42.025Z,90.80
2022-07-28T10:48:14.380Z,91.80
2022-07-28T10:50:43.286Z,90.40
2022-07-28T10:53:18.948Z,89.50
2022-07-28T10:55:56.013Z,88.90
2022-07-28T10:58:36.062Z,89.80
2022-07-28T11:01:06.307Z,87.50
2022-07-28T11:03:42.542Z,88.80
2022-07-28T11:06:29.492Z,88.70
2022-07-28T11:08:59.666Z,86.30
2022-07-28T11:11:49.951Z,83.70
2022-07-28T11:14:37.607Z,81.40
2022-07-28T11:17:19.864Z,82.50
2022-07-28T11:22:46.331Z,81.30
2022-07-28T11:25:18.869Z,80.40
2022-07-28T11:28:06.981Z,80.00
2022-07-28T11:30:55.635Z,79.70
2022-07-28T11:33:27.363Z,80.10
2022-07-28T11:36:02.450Z,76.30
2022-07-28T11:38:30.985Z,77.60
2022-07-28T11:40:59.741Z,77.10
2022-07-28T11:43:37.618Z,75.00
2022-07-28T11:46:24.129Z,74.90
2022-07-28T11:49:19.618Z,75.40
2022-07-28T11:52:16.974Z,73.10
2022-07-28T11:54:51.807Z,73.70
2022-07-28T11:57:24.225Z,73.40
2022-07-28T11:59:57.196Z,71.50
2022-07-28T12:02:28.713Z,70.60
2022-07-28T12:05:03.675Z,73.60
2022-07-28T12:07:38.762Z,70.90
2022-07-28T12:13:16.754Z,73.70
2022-07-28T12:15:53.006Z,70.60
2022-07-28T12:18:21.932Z,70.50
2022-07-28T12:20:54.730Z,69.80
2022-07-28T12:23:39.178Z,72.30
2022-07-28T12:26:29.263Z,69.80
2022-07-28T12:29:01.408Z,69.00
2022-07-28T12:31:33.485Z,71.20
2022-07-28T12:34:02.928Z,69.80
2022-07-28T12:36:31.485Z,69.90
2022-07-28T12:39:01.309Z,67.50
2022-07-28T12:41:34.617Z,68.30
2022-07-28T12:44:06.301Z,68.80
2022-07-28T12:46:36.701Z,67.60
2022-07-28T12:49:05.305Z,68.90
2022-07-28T12:51:35.694Z,68.80
2022-07-28T12:54:04.280Z,65.60
2022-07-28T12:56:33.122Z,66.00
2022-07-28T12:59:06.558Z,66.90
2022-07-28T13:01:54.066Z,66.90
2022-07-28T13:04:41.814Z,67.60
2022-07-28T13:07:13.251Z,66.80
2022-07-28T13:09:48.011Z,67.00
2022-07-28T13:12:22.288Z,65.50
2022-07-28T13:14:52.790Z,67.00
2022-07-28T13:17:24.273Z,66.70
2022-07-28T13:20:04.150Z,67.30
2022-07-28T13:22:33.916Z,66.50
2022-07-28T13:25:02.319Z,66.70
2022-07-28T13:27:33.755Z,65.60
2022-07-28T13:30:02.498Z,68.50
2022-07-28T13:32:34.194Z,65.90
2022-07-28T13:35:03.782Z,67.90
2022-07-28T13:37:32.893Z,65.90
2022-07-28T13:40:01.752Z,64.10
2022-07-28T13:42:32.801Z,64.50
2022-07-28T13:45:01.614Z,62.50
2022-07-28T13:47:38.732Z,64.20
2022-07-28T13:50:09.879Z,63.40
2022-07-28T13:52:39.931Z,65.10
2022-07-28T13:55:10.347Z,65.60
2022-07-28T13:57:43.083Z,65.30
2022-07-28T14:00:12.803Z,63.30
2022-07-28T14:02:44.061Z,63.60
2022-07-28T14:05:14.461Z,63.70
2022-07-28T14:07:49.001Z,62.60
2022-07-28T14:10:18.109Z,63.80
2022-07-28T14:12:46.944Z,62.90
2022-07-28T14:15:15.754Z,61.60
2022-07-28T14:17:46.487Z,68.80
2022-07-28T14:20:16.333Z,64.90
2022-07-28T14:22:46.313Z,63.00
2022-07-28T14:25:20.983Z,62.40
2022-07-28T14:27:51.534Z,61.70
2022-07-28T14:30:21.046Z,61.30
2022-07-28T14:32:51.281Z,61.40
2022-07-28T14:35:19.969Z,66.30
2022-07-28T14:40:39.737Z,62.60
2022-07-28T14:43:09.270Z,63.40
2022-07-28T14:45:51.374Z,64.10
2022-07-28T14:48:30.848Z,63.70
2022-07-28T14:51:01.260Z,64.00
2022-07-28T14:53:29.509Z,64.20
2022-07-28T14:55:57.965Z,62.20
2022-07-28T14:58:26.917Z,62.20
2022-07-28T15:00:55.944Z,62.80
2022-07-28T15:03:26.864Z,62.50
2022-07-28T15:05:58.177Z,62.00
2022-07-28T15:08:29.023Z,61.80
2022-07-28T15:10:58.786Z,63.10
2022-07-28T15:13:27.959Z,62.60
2022-07-28T15:16:00.248Z,61.30
2022-07-28T15:18:29.041Z,62.50
2022-07-28T15:20:59.061Z,62.50
2022-07-28T15:23:27.670Z,61.60
2022-07-28T15:25:56.295Z,61.40
2022-07-28T15:28:24.965Z,61.20
2022-07-28T15:30:53.785Z,61.80
2022-07-28T15:33:22.510Z,60.90
2022-07-28T15:35:58.485Z,60.60
2022-07-28T15:38:31.766Z,65.50
2022-07-28T15:41:00.675Z,66.00
2022-07-28T15:43:29.805Z,61.90
2022-07-28T15:45:58.701Z,61.90
2022-07-28T15:48:27.544Z,62.80
2022-07-28T15:50:55.861Z,62.30
2022-07-28T15:53:24.570Z,62.20
2022-07-28T15:55:54.787Z,64.90
2022-07-28T15:58:25.851Z,62.30
2022-07-28T16:00:54.813Z,63.90
2022-07-28T16:03:23.961Z,67.10
2022-07-28T16:05:52.548Z,63.50
2022-07-28T16:08:23.067Z,65.30
2022-07-28T16:10:54.920Z,63.70
2022-07-28T16:13:36.409Z,63.90
2022-07-28T16:16:08.400Z,63.70
2022-07-28T16:18:38.834Z,64.30
2022-07-28T16:21:09.021Z,64.30
2022-07-28T16:23:37.568Z,65.30
2022-07-28T16:26:09.207Z,63.80
2022-07-28T16:28:37.854Z,64.80
2022-07-28T16:31:06.567Z,63.40
2022-07-28T16:33:35.605Z,64.20
2022-07-28T16:36:04.353Z,63.00
2022-07-28T16:38:33.481Z,63.20
2022-07-28T16:41:01.867Z,64.20
2022-07-28T16:43:32.215Z,65.20
2022-07-28T16:46:02.612Z,66.10
2022-07-28T16:48:31.840Z,63.70
2022-07-28T16:51:00.300Z,68.20
2022-07-28T16:53:28.924Z,65.30
2022-07-28T16:55:57.743Z,67.10
2022-07-28T16:58:26.133Z,64.00
2022-07-28T17:00:56.110Z,62.80
2022-07-28T17:03:27.700Z,66.00
2022-07-28T17:05:56.616Z,67.00
2022-07-28T17:08:25.120Z,63.50
2022-07-28T17:10:53.591Z,68.30
2022-07-28T17:13:25.589Z,63.40
2022-07-28T17:15:55.626Z,63.80
2022-07-28T17:18:24.017Z,65.00
2022-07-28T17:20:52.820Z,66.00
2022-07-28T17:23:21.154Z,64.20
2022-07-28T17:26:34.750Z,63.10
2022-07-28T17:28:41.518Z,62.60
2022-07-28T17:31:11.634Z,62.90
2022-07-28T17:33:41.151Z,63.00
2022-07-28T17:36:09.769Z,63.00
2022-07-28T17:38:38.651Z,63.40
2022-07-28T17:41:09.166Z,63.50
2022-07-28T17:43:42.301Z,63.70
2022-07-28T17:46:15.476Z,63.40
2022-07-28T17:48:44.580Z,63.60
2022-07-28T17:51:13.721Z,63.90
2022-07-28T17:53:45.753Z,65.00
2022-07-28T17:56:14.758Z,64.30
2022-07-28T17:58:43.139Z,64.40
2022-07-28T18:01:13.714Z,64.80
2022-07-28T18:03:56.644Z,64.80
2022-07-28T18:06:32.140Z,65.30
2022-07-28T18:09:04.810Z,65.40
2022-07-28T18:11:55.245Z,65.70
2022-07-28T18:14:25.261Z,65.90
2022-07-28T18:16:53.584Z,65.90
2022-07-28T18:19:23.321Z,66.30
2022-07-28T18:21:51.862Z,67.00
2022-07-28T18:24:22.216Z,66.60
2022-07-28T18:26:51.903Z,66.40
2022-07-28T18:29:23.207Z,66.40
2022-07-28T18:31:52.678Z,67.00
2022-07-28T18:34:24.686Z,66.70
2022-07-28T18:36:54.223Z,68.60
2022-07-28T18:39:22.743Z,67.30
2022-07-28T18:41:51.261Z,67.80
2022-07-28T18:44:20.640Z,68.80
2022-07-28T18:46:50.550Z,67.90
2022-07-28T18:49:20.135Z,68.10
2022-07-28T18:51:50.631Z,67.80
2022-07-28T18:54:27.428Z,68.10
2022-07-28T18:56:57.510Z,68.90
2022-07-28T18:59:28.347Z,70.40
2022-07-28T19:01:58.018Z,69.50
2022-07-28T19:04:27.236Z,69.50
2022-07-28T19:06:57.572Z,71.10
2022-07-28T19:09:36.904Z,71.10
2022-07-28T19:12:08.719Z,70.70
2022-07-28T19:14:38.768Z,71.30
2022-07-28T19:17:08.858Z,71.10
2022-07-28T19:19:37.709Z,72.80
2022-07-28T19:22:08.511Z,73.20
2022-07-28T19:24:37.379Z,73.10
2022-07-28T19:27:07.168Z,74.80
2022-07-28T19:29:36.416Z,74.60
2022-07-28T19:32:06.471Z,75.10
2022-07-28T19:34:36.136Z,74.00
2022-07-28T19:37:06.837Z,74.70
2022-07-28T19:39:37.218Z,73.70
2022-07-28T19:42:10.082Z,72.70
2022-07-28T19:44:39.298Z,73.10
2022-07-28T19:47:08.667Z,72.50
2022-07-28T19:49:39.543Z,73.20
2022-07-28T19:52:09.732Z,72.50
2022-07-28T19:54:38.213Z,72.10
2022-07-28T19:57:12.398Z,74.70
2022-07-28T19:59:43.155Z,75.40
2022-07-28T20:02:11.864Z,74.30
2022-07-28T20:04:40.381Z,76.00
2022-07-28T20:07:10.188Z,76.80
2022-07-28T20:09:39.792Z,75.30
2022-07-28T20:12:08.801Z,73.50
2022-07-28T20:14:38.521Z,74.90
2022-07-28T20:17:07.184Z,75.60
2022-07-28T20:19:35.550Z,75.40
2022-07-28T20:22:04.333Z,75.80
2022-07-28T20:24:34.093Z,74.80
2022-07-28T20:27:03.990Z,75.50
2022-07-28T20:29:32.369Z,75.20
2022-07-28T20:32:00.851Z,75.30
2022-07-28T20:34:29.649Z,76.00
2022-07-28T20:36:58.212Z,76.00
2022-07-28T20:39:44.534Z,75.80
2022-07-28T20:42:15.389Z,76.20
2022-07-28T20:44:43.883Z,76.10
2022-07-28T20:47:12.729Z,76.80
2022-07-28T20:49:43.435Z,76.60
2022-07-28T20:52:11.774Z,76.90
2022-07-28T20:54:40.152Z,77.10
2022-07-28T20:57:08.581Z,77.70
2022-07-28T20:59:38.237Z,79.00
2022-07-28T21:02:07.000Z,80.60
2022-07-28T21:04:35.306Z,82.20
2022-07-28T21:07:04.121Z,83.30
2022-07-28T21:09:33.780Z,84.30
2022-07-28T21:12:02.137Z,85.30
2022-07-28T21:14:32.257Z,86.90
2022-07-28T21:17:02.213Z,87.20
2022-07-28T21:19:30.664Z,88.10
2022-07-28T21:21:59.058Z,88.20
2022-07-28T21:24:27.796Z,88.20
2022-07-28T21:26:56.394Z,86.80
2022-07-28T21:32:04.153Z,85.80
2022-07-28T21:34:37.001Z,86.50
2022-07-28T21:37:06.946Z,87.60
2022-07-28T21:39:36.625Z,86.70
2022-07-28T21:42:08.598Z,87.00
2022-07-28T21:44:38.400Z,85.90
2022-07-28T21:47:07.043Z,85.90
2022-07-28T21:49:38.181Z,86.30
2022-07-28T21:52:06.806Z,86.00
2022-07-28T21:54:35.582Z,84.80
2022-07-28T21:57:20.899Z,85.30
2022-07-28T21:59:54.240Z,84.80
2022-07-28T22:02:24.182Z,84.30
2022-07-28T22:04:55.238Z,84.50
2022-07-28T22:07:23.866Z,84.00
2022-07-28T22:09:52.276Z,83.70
2022-07-28T22:12:21.016Z,83.90
2022-07-28T22:14:49.396Z,84.00
2022-07-28T22:17:19.023Z,83.60
2022-07-28T22:19:47.553Z,84.10
2022-07-28T22:22:18.496Z,83.70
2022-07-28T22:24:47.166Z,84.80
2022-07-28T22:27:15.901Z,86.90
2022-07-28T22:29:49.977Z,88.90
2022-07-28T22:32:28.574Z,89.70
2022-07-28T22:34:58.554Z,90.10
2022-07-28T22:37:28.871Z,90.20
2022-07-28T22:39:57.170Z,89.90
2022-07-28T22:42:26.307Z,89.50
2022-07-28T22:44:55.025Z,89.90
2022-07-28T22:47:24.045Z,90.00
2022-07-28T22:49:53.785Z,90.50
2022-07-28T22:52:26.076Z,90.80
2022-07-28T22:54:56.814Z,91.50
2022-07-28T22:57:26.796Z,92.20
2022-07-28T22:59:55.717Z,92.70
2022-07-28T23:02:26.136Z,93.00
2022-07-28T23:04:55.431Z,93.60
2022-07-28T23:07:51.023Z,94.00
2022-07-28T23:10:14.258Z,94.60
2022-07-28T23:12:42.661Z,95.20
2022-07-28T23:15:11.373Z,95.30
2022-07-28T23:17:40.021Z,95.40
2022-07-28T23:20:09.104Z,95.70
2022-07-28T23:22:37.944Z,96.20
2022-07-28T23:25:07.196Z,96.20
2022-07-28T23:27:37.112Z,96.50
2022-07-28T23:30:06.457Z,97.10
2022-07-28T23:32:35.164Z,97.40
2022-07-28T23:35:03.582Z,97.80
2022-07-28T23:37:35.320Z,98.10
2022-07-28T23:40:04.999Z,98.30
2022-07-28T23:42:33.402Z,98.60
2022-07-28T23:45:03.723Z,98.80
2022-07-28T23:47:34.308Z,99.40
2022-07-28T23:50:03.738Z,99.50
2022-07-28T23:52:32.243Z,99.70
2022-07-28T23:55:00.891Z,99.70
2022-07-28T23:57:30.926Z,99.90
2022-07-28T23:59:59.708Z,99.90
